Time;durP1;ratioP1;P1;durP2;ratioP2;P2;SDS_P1;SDS_P2;PMS_P1;PMS_P2;Temp;Humidity;BMP_temperature;BMP_pressure;BME280_temperature;BME280_humidity;BME280_pressure;Samples;Min_cycle;Max_cycle;Signal;HPM_P1;HPM_P2
2021/05/12 00:01:32;;;;;;;6.17;5.50;;;13.40;99.90;;;;;;5040279;28;20714;-71
2021/05/12 00:03:57;;;;;;;6.17;5.40;;;13.30;99.90;;;;;;5039129;28;20213;-70
2021/05/12 00:06:23;;;;;;;7.83;5.53;;;13.30;99.90;;;;;;5021708;28;20200;-71
2021/05/12 00:08:49;;;;;;;6.50;5.57;;;13.30;99.90;;;;;;5039054;28;20318;-70
2021/05/12 00:11:14;;;;;;;6.13;5.47;;;13.30;99.90;;;;;;5043020;28;20572;-70
2021/05/12 00:13:40;;;;;;;5.13;4.53;;;13.40;99.90;;;;;;5039771;28;20199;-70
2021/05/12 00:16:06;;;;;;;4.20;3.80;;;13.30;99.90;;;;;;5040711;28;20242;-71
2021/05/12 00:18:38;;;;;;;6.00;4.90;;;13.30;99.90;;;;;;5039852;28;20598;-70
2021/05/12 00:21:06;;;;;;;5.17;4.40;;;13.30;99.90;;;;;;5042466;28;20554;-70
2021/05/12 00:24:17;;;;;;;5.33;4.20;;;13.40;99.90;;;;;;5040856;28;20439;-70
2021/05/12 00:26:18;;;;;;;4.13;3.73;;;13.40;99.90;;;;;;5021800;28;20438;-70
2021/05/12 00:28:43;;;;;;;4.87;4.20;;;13.30;99.90;;;;;;5041496;28;20433;-71
2021/05/12 00:31:09;;;;;;;4.80;3.77;;;13.30;99.90;;;;;;5040895;28;20301;-71
2021/05/12 00:33:34;;;;;;;4.63;4.23;;;13.30;99.90;;;;;;5040149;28;20192;-69
2021/05/12 00:36:00;;;;;;;10.70;3.90;;;13.30;99.90;;;;;;5040665;28;20268;-71
2021/05/12 00:38:25;;;;;;;4.33;3.93;;;13.40;99.90;;;;;;5040606;28;20234;-69
2021/05/12 00:40:51;;;;;;;5.20;3.50;;;13.30;99.90;;;;;;5041354;28;20200;-71
2021/05/12 00:43:17;;;;;;;4.50;3.50;;;13.20;99.90;;;;;;5022708;28;20200;-71
2021/05/12 00:45:42;;;;;;;3.93;3.63;;;13.20;99.90;;;;;;5039863;28;20216;-71
2021/05/12 00:48:08;;;;;;;4.47;3.70;;;13.20;99.90;;;;;;5041325;28;20186;-70
2021/05/12 00:50:34;;;;;;;6.17;4.00;;;13.20;99.90;;;;;;5039333;28;20223;-71
2021/05/12 00:53:00;;;;;;;4.07;3.40;;;13.20;99.90;;;;;;5036789;28;20191;-69
2021/05/12 00:55:27;;;;;;;3.77;3.47;;;13.20;99.90;;;;;;5038646;28;20214;-71
2021/05/12 00:57:52;;;;;;;5.07;3.83;;;13.20;99.90;;;;;;5039325;28;20822;-70
2021/05/12 01:00:22;;;;;;;4.23;3.60;;;13.20;99.90;;;;;;5041360;28;20478;-70
2021/05/12 01:02:47;;;;;;;5.63;4.10;;;13.10;99.90;;;;;;5038415;28;20175;-70
2021/05/12 01:05:34;;;;;;;4.33;3.93;;;13.20;99.90;;;;;;5039664;28;20453;-70
2021/05/12 01:08:04;;;;;;;5.00;4.07;;;13.20;99.90;;;;;;5040054;28;20335;-69
2021/05/12 01:10:31;;;;;;;4.83;3.97;;;13.00;99.90;;;;;;5039183;28;20503;-70
2021/05/12 01:12:57;;;;;;;3.90;3.37;;;13.00;99.90;;;;;;5037816;28;20430;-70
2021/05/12 01:15:22;;;;;;;5.30;4.10;;;13.10;99.90;;;;;;5039896;28;20462;-71
2021/05/12 01:17:48;;;;;;;4.97;3.37;;;13.10;99.90;;;;;;5040495;28;20196;-71
2021/05/12 01:20:15;;;;;;;4.13;3.70;;;13.00;99.90;;;;;;5039401;28;20584;-71
2021/05/12 01:22:41;;;;;;;3.77;3.47;;;13.00;99.90;;;;;;5040536;28;20943;-68
2021/05/12 01:25:09;;;;;;;4.70;3.30;;;13.00;99.90;;;;;;5038118;28;20450;-71
2021/05/12 01:27:36;;;;;;;4.60;3.67;;;13.00;99.90;;;;;;5038693;28;20188;-69
2021/05/12 01:30:04;;;;;;;3.90;3.50;;;13.00;99.90;;;;;;5039553;28;20468;-69
2021/05/12 01:32:34;;;;;;;4.00;3.60;;;13.00;99.90;;;;;;5039543;28;20434;-70
2021/05/12 01:35:06;;;;;;;3.73;3.43;;;13.00;99.90;;;;;;5040028;28;21000;-70
2021/05/12 01:37:32;;;;;;;4.70;3.10;;;13.00;99.90;;;;;;5039898;28;20435;-69
2021/05/12 01:39:58;;;;;;;4.20;3.03;;;13.00;99.90;;;;;;5040290;28;20504;-71
2021/05/12 01:42:23;;;;;;;5.73;4.00;;;13.00;99.90;;;;;;5039919;28;20191;-71
2021/05/12 01:44:49;;;;;;;5.20;4.00;;;12.90;99.90;;;;;;5041266;28;20299;-71
2021/05/12 01:47:14;;;;;;;6.60;3.80;;;12.90;99.90;;;;;;5044808;28;20195;-69
2021/05/12 01:49:40;;;;;;;4.67;3.60;;;13.00;99.90;;;;;;5044415;28;20373;-69
2021/05/12 01:52:06;;;;;;;6.90;3.40;;;12.90;99.90;;;;;;5044461;28;20196;-70
2021/05/12 01:54:31;;;;;;;4.57;3.53;;;12.90;99.90;;;;;;5042174;28;20254;-68
2021/05/12 01:56:57;;;;;;;5.20;4.57;;;12.80;99.90;;;;;;5045277;28;20196;-70
2021/05/12 01:59:23;;;;;;;4.73;3.03;;;12.90;99.90;;;;;;5043579;28;20555;-71
2021/05/12 02:01:48;;;;;;;5.23;3.57;;;12.90;99.90;;;;;;5044191;28;20578;-70
2021/05/12 02:04:14;;;;;;;4.17;3.57;;;12.80;99.90;;;;;;5043672;28;20231;-70
2021/05/12 02:06:39;;;;;;;3.90;3.23;;;12.90;99.90;;;;;;5043856;28;20257;-70
2021/05/12 02:09:07;;;;;;;4.17;3.73;;;12.80;99.90;;;;;;5043322;28;20556;-71
2021/05/12 02:11:33;;;;;;;7.07;5.13;;;12.80;99.90;;;;;;5043198;28;20667;-71
2021/05/12 02:13:58;;;;;;;5.43;3.43;;;12.70;99.90;;;;;;5042210;28;20501;-69
2021/05/12 02:16:24;;;;;;;4.30;3.20;;;12.80;99.90;;;;;;5044191;28;20442;-70
2021/05/12 02:18:50;;;;;;;7.07;4.10;;;12.80;99.90;;;;;;5044913;28;20192;-70
2021/05/12 02:21:15;;;;;;;5.23;3.67;;;12.70;99.90;;;;;;5042594;28;20219;-70
2021/05/12 02:23:41;;;;;;;6.63;4.40;;;12.70;99.90;;;;;;5041574;28;20249;-69
2021/05/12 02:26:06;;;;;;;4.80;4.13;;;12.70;99.90;;;;;;5024712;28;20774;-70
2021/05/12 02:28:32;;;;;;;5.53;4.53;;;12.70;99.90;;;;;;5044639;28;20196;-70
2021/05/12 02:30:58;;;;;;;4.83;4.10;;;12.70;99.90;;;;;;5044803;28;20697;-70
2021/05/12 02:33:24;;;;;;;6.40;5.40;;;12.80;99.90;;;;;;5044235;28;20212;-70
2021/05/12 02:35:49;;;;;;;8.00;5.20;;;12.80;99.90;;;;;;5041430;28;20480;-72
2021/05/12 02:38:15;;;;;;;8.00;5.60;;;12.80;99.90;;;;;;5043071;28;20695;-71
2021/05/12 02:40:41;;;;;;;5.43;4.50;;;12.80;99.90;;;;;;5043112;28;20231;-70
2021/05/12 02:43:06;;;;;;;6.13;4.33;;;12.70;99.90;;;;;;5040804;28;20194;-71
2021/05/12 02:45:33;;;;;;;8.43;4.70;;;12.70;99.90;;;;;;5043730;28;20216;-70
2021/05/12 02:48:04;;;;;;;5.87;4.87;;;12.80;99.90;;;;;;5041455;28;20200;-70
2021/05/12 02:50:32;;;;;;;8.27;5.60;;;12.80;99.90;;;;;;5041143;28;20434;-70
2021/05/12 02:53:00;;;;;;;5.83;5.20;;;12.70;99.90;;;;;;5044871;28;20859;-70
2021/05/12 02:55:28;;;;;;;6.37;5.17;;;12.70;99.90;;;;;;5041019;28;20462;-68
2021/05/12 02:57:54;;;;;;;8.33;4.70;;;12.70;99.90;;;;;;5040313;28;20439;-69
2021/05/12 03:00:23;;;;;;;7.43;5.40;;;12.70;99.90;;;;;;5042420;28;20466;-71
2021/05/12 03:02:49;;;;;;;10.20;6.20;;;12.60;99.90;;;;;;5040966;28;20430;-71
2021/05/12 03:05:16;;;;;;;16.93;6.10;;;12.60;99.90;;;;;;5041506;28;20536;-70
2021/05/12 03:07:42;;;;;;;7.80;5.57;;;12.60;99.90;;;;;;5044410;28;20430;-70
2021/05/12 03:10:11;;;;;;;8.73;6.60;;;12.60;99.90;;;;;;5042057;28;20454;-69
2021/05/12 03:12:37;;;;;;;9.90;5.60;;;12.60;99.90;;;;;;5040468;28;20537;-70
2021/05/12 03:15:08;;;;;;;8.60;6.60;;;12.60;99.90;;;;;;5043050;28;20836;-70
2021/05/12 03:17:33;;;;;;;8.20;5.90;;;12.60;99.90;;;;;;5040598;28;20439;-70
2021/05/12 03:19:59;;;;;;;6.97;5.53;;;12.60;99.90;;;;;;5040737;28;20496;-72
2021/05/12 03:22:25;;;;;;;10.23;6.70;;;12.60;99.90;;;;;;5040918;28;20186;-71
2021/05/12 03:24:50;;;;;;;8.70;6.60;;;12.60;99.90;;;;;;5040371;28;20261;-72
2021/05/12 03:27:16;;;;;;;7.30;6.13;;;12.60;99.90;;;;;;5040981;28;20192;-70
2021/05/12 03:29:42;;;;;;;8.00;5.60;;;12.60;99.90;;;;;;5041007;28;20684;-70
2021/05/12 03:32:07;;;;;;;5.87;5.10;;;12.50;99.90;;;;;;5039607;28;20200;-71
2021/05/12 03:34:33;;;;;;;9.57;5.27;;;12.50;99.90;;;;;;5038151;28;20219;-70
2021/05/12 03:36:59;;;;;;;5.40;4.90;;;12.50;99.90;;;;;;5042496;28;20219;-69
2021/05/12 03:39:24;;;;;;;5.70;4.87;;;12.50;99.90;;;;;;5039646;28;20204;-69
2021/05/12 03:41:50;;;;;;;7.83;4.87;;;12.40;99.90;;;;;;5040766;28;20663;-70
2021/05/12 03:44:16;;;;;;;6.30;4.40;;;12.40;99.90;;;;;;5041282;28;20582;-70
2021/05/12 03:46:41;;;;;;;5.10;4.40;;;12.40;99.90;;;;;;5039818;28;20192;-69
2021/05/12 03:49:07;;;;;;;10.67;4.53;;;12.40;99.90;;;;;;5023876;28;20179;-70
2021/05/12 03:51:32;;;;;;;16.63;7.93;;;12.40;99.90;;;;;;5042084;28;20221;-71
2021/05/12 03:53:58;;;;;;;7.80;4.93;;;12.40;99.90;;;;;;5042764;28;20265;-71
2021/05/12 03:56:24;;;;;;;7.57;5.10;;;12.40;99.90;;;;;;5040409;28;20196;-70
2021/05/12 03:58:49;;;;;;;6.50;4.90;;;12.30;99.90;;;;;;5041260;28;20204;-70
2021/05/12 04:01:15;;;;;;;7.23;5.47;;;12.40;99.90;;;;;;5040669;28;20269;-71
2021/05/12 04:03:40;;;;;;;7.20;4.80;;;12.30;99.90;;;;;;5040630;28;20737;-71
2021/05/12 04:06:06;;;;;;;7.20;5.23;;;12.30;99.90;;;;;;5042751;28;20199;-70
2021/05/12 04:08:32;;;;;;;7.77;4.73;;;12.30;99.90;;;;;;5041595;28;20787;-71
2021/05/12 04:10:57;;;;;;;9.43;5.50;;;12.30;99.90;;;;;;5040540;28;20203;-71
2021/05/12 04:13:24;;;;;;;6.10;4.90;;;12.30;99.90;;;;;;5039337;28;20200;-72
2021/05/12 04:15:49;;;;;;;11.13;4.60;;;12.30;99.90;;;;;;5040101;28;20583;-71
2021/05/12 04:18:16;;;;;;;7.20;5.20;;;12.30;99.90;;;;;;5041130;28;20449;-69
2021/05/12 04:20:42;;;;;;;4.30;3.90;;;12.30;99.90;;;;;;5040239;28;20222;-69
2021/05/12 04:23:07;;;;;;;4.43;3.70;;;12.20;99.90;;;;;;5021802;28;22385;-70
2021/05/12 04:25:33;;;;;;;7.90;3.83;;;12.10;99.90;;;;;;5039899;28;20219;-70
2021/05/12 04:27:59;;;;;;;10.73;5.53;;;12.10;99.90;;;;;;5039050;28;20551;-69
2021/05/12 04:30:27;;;;;;;5.00;3.80;;;12.10;99.90;;;;;;5040689;28;20190;-71
2021/05/12 04:32:55;;;;;;;4.40;4.00;;;12.10;99.90;;;;;;5040121;28;20523;-71
2021/05/12 04:35:21;;;;;;;6.13;4.63;;;12.00;99.90;;;;;;5039400;28;20466;-70
2021/05/12 04:37:48;;;;;;;5.43;4.53;;;12.00;99.90;;;;;;5040756;28;20445;-71
2021/05/12 04:40:13;;;;;;;5.53;4.20;;;12.00;99.90;;;;;;5038818;28;20269;-71
2021/05/12 04:42:39;;;;;;;5.70;4.10;;;12.00;99.90;;;;;;5037641;28;20438;-70
2021/05/12 04:45:08;;;;;;;5.00;4.03;;;12.00;99.90;;;;;;5041704;28;20208;-70
2021/05/12 04:47:34;;;;;;;5.67;3.80;;;11.90;99.90;;;;;;5039440;28;20564;-72
2021/05/12 04:50:00;;;;;;;5.77;4.80;;;12.00;99.90;;;;;;5039499;28;21106;-72
2021/05/12 04:52:25;;;;;;;9.60;4.80;;;12.00;99.90;;;;;;5040875;28;20188;-71
2021/05/12 04:54:51;;;;;;;4.40;4.00;;;12.00;99.90;;;;;;5040098;28;20231;-73
2021/05/12 04:57:17;;;;;;;5.50;4.13;;;12.00;99.90;;;;;;5040487;28;20196;-72
2021/05/12 04:59:43;;;;;;;3.90;3.50;;;12.00;99.90;;;;;;5040174;28;20227;-72
2021/05/12 05:02:11;;;;;;;6.70;4.50;;;12.00;99.90;;;;;;5040308;28;20474;-69
2021/05/12 05:04:40;;;;;;;5.17;4.30;;;12.00;99.90;;;;;;5039023;28;20280;-71
2021/05/12 05:07:05;;;;;;;5.13;4.47;;;12.00;99.90;;;;;;5042329;28;20924;-69
2021/05/12 05:09:31;;;;;;;4.80;4.30;;;11.90;99.90;;;;;;5039137;28;20457;-71
2021/05/12 05:11:56;;;;;;;5.60;4.23;;;11.90;99.90;;;;;;5039887;28;20195;-71
2021/05/12 05:14:22;;;;;;;6.13;3.40;;;11.90;99.90;;;;;;5039160;28;20250;-70
2021/05/12 05:16:48;;;;;;;5.97;4.10;;;11.80;99.90;;;;;;5039962;28;20294;-72
2021/05/12 05:19:13;;;;;;;4.50;3.97;;;11.80;99.90;;;;;;5042877;28;20192;-70
2021/05/12 05:21:40;;;;;;;4.17;3.77;;;11.80;99.90;;;;;;5043330;28;20214;-70
2021/05/12 05:24:08;;;;;;;4.27;3.87;;;11.80;99.90;;;;;;5042756;28;20390;-72
2021/05/12 05:26:33;;;;;;;4.90;3.90;;;11.90;99.90;;;;;;5043299;28;20429;-70
2021/05/12 05:28:59;;;;;;;6.43;4.30;;;11.90;99.90;;;;;;5043029;28;20832;-70
2021/05/12 05:31:24;;;;;;;4.50;3.73;;;11.90;99.90;;;;;;5043377;28;20211;-69
2021/05/12 05:33:50;;;;;;;7.60;4.83;;;11.90;99.90;;;;;;5044341;28;20266;-71
2021/05/12 05:36:16;;;;;;;4.30;3.70;;;11.90;99.90;;;;;;5044119;28;20200;-71
2021/05/12 05:38:42;;;;;;;5.43;3.40;;;11.90;99.90;;;;;;5046037;28;20200;-70
2021/05/12 05:41:07;;;;;;;4.80;4.17;;;11.90;99.90;;;;;;5042984;28;20472;-71
2021/05/12 05:43:33;;;;;;;5.43;3.30;;;12.00;99.90;;;;;;5043593;28;20249;-71
2021/05/12 05:45:59;;;;;;;6.43;3.60;;;12.00;99.90;;;;;;5044194;28;20224;-70
2021/05/12 05:48:24;;;;;;;5.17;3.77;;;12.00;99.90;;;;;;5042908;28;20222;-70
2021/05/12 05:50:50;;;;;;;6.00;3.17;;;12.00;99.90;;;;;;5042489;28;20223;-71
2021/05/12 05:53:19;;;;;;;7.37;3.37;;;12.00;99.90;;;;;;5044796;28;20179;-69
2021/05/12 05:55:45;;;;;;;5.07;3.00;;;12.00;99.90;;;;;;5042575;28;20241;-71
2021/05/12 05:58:11;;;;;;;3.53;3.23;;;12.00;99.90;;;;;;5042424;28;20442;-69
2021/05/12 06:00:37;;;;;;;6.70;3.20;;;11.90;99.90;;;;;;5040837;28;20902;-70
2021/05/12 06:03:02;;;;;;;3.70;2.90;;;12.00;99.90;;;;;;5042759;28;20253;-69
2021/05/12 06:05:28;;;;;;;8.80;3.20;;;12.00;99.90;;;;;;5042966;28;20254;-70
2021/05/12 06:07:54;;;;;;;6.73;6.07;;;12.00;99.90;;;;;;5042750;28;20230;-70
2021/05/12 06:10:19;;;;;;;4.97;2.90;;;12.00;99.90;;;;;;5045473;28;21003;-70
2021/05/12 06:12:45;;;;;;;4.20;2.93;;;12.00;99.90;;;;;;5042823;28;20290;-69
2021/05/12 06:15:17;;;;;;;2.80;2.57;;;12.00;99.90;;;;;;5042137;28;20334;-69
2021/05/12 06:17:43;;;;;;;3.07;2.77;;;12.00;99.90;;;;;;5042506;28;20223;-69
2021/05/12 06:20:09;;;;;;;3.03;2.70;;;12.00;99.90;;;;;;5043253;28;20473;-70
2021/05/12 06:22:34;;;;;;;3.30;3.00;;;12.00;99.90;;;;;;5042220;28;20200;-71
2021/05/12 06:25:00;;;;;;;3.97;2.77;;;11.90;99.90;;;;;;5041685;28;20458;-71
2021/05/12 06:27:26;;;;;;;3.30;2.80;;;12.00;99.90;;;;;;5038955;28;20188;-69
2021/05/12 06:29:52;;;;;;;2.80;2.50;;;11.90;99.90;;;;;;5040682;28;20842;-69
2021/05/12 06:32:17;;;;;;;3.20;2.40;;;12.00;99.90;;;;;;5041842;28;20192;-69
2021/05/12 06:34:43;;;;;;;3.13;2.77;;;12.00;99.90;;;;;;5041448;28;20220;-71
2021/05/12 06:37:09;;;;;;;5.80;3.73;;;12.00;99.90;;;;;;5042245;28;20832;-69
2021/05/12 06:39:34;;;;;;;7.70;3.27;;;12.00;99.90;;;;;;5043579;28;20283;-70
2021/05/12 06:42:00;;;;;;;2.87;2.57;;;12.00;99.90;;;;;;5046406;28;20176;-69
2021/05/12 06:44:26;;;;;;;5.20;2.63;;;12.10;99.90;;;;;;5043254;28;20220;-71
2021/05/12 06:46:52;;;;;;;3.17;2.33;;;12.10;99.90;;;;;;5039323;28;20211;-72
2021/05/12 06:49:18;;;;;;;7.80;2.60;;;12.10;99.90;;;;;;5041443;28;20438;-70
2021/05/12 06:51:44;;;;;;;8.30;2.70;;;12.10;99.90;;;;;;5038750;28;20207;-70
2021/05/12 06:54:10;;;;;;;5.83;2.87;;;12.10;99.90;;;;;;5039764;28;20473;-71
2021/05/12 06:56:36;;;;;;;11.13;4.00;;;12.20;99.90;;;;;;5041877;28;20250;-71
2021/05/12 06:59:01;;;;;;;6.40;2.67;;;12.10;99.90;;;;;;5042825;28;20998;-70
2021/05/12 07:01:27;;;;;;;7.03;2.40;;;12.10;99.90;;;;;;5040708;28;20219;-71
2021/05/12 07:03:53;;;;;;;2.67;2.43;;;12.20;99.90;;;;;;5039159;28;20630;-70
2021/05/12 07:06:18;;;;;;;4.57;2.67;;;12.10;99.90;;;;;;5041309;28;20559;-69
2021/05/12 07:08:48;;;;;;;3.30;2.20;;;12.10;99.90;;;;;;5041404;28;20184;-69
2021/05/12 07:11:14;;;;;;;3.20;2.07;;;12.20;99.90;;;;;;5044040;28;20203;-71
2021/05/12 07:13:39;;;;;;;4.37;2.20;;;12.10;99.90;;;;;;5021572;28;20789;-71
2021/05/12 07:16:05;;;;;;;5.60;2.80;;;12.10;99.90;;;;;;5040968;28;20658;-69
2021/05/12 07:18:32;;;;;;;9.20;2.87;;;12.10;99.90;;;;;;5040519;28;20238;-70
2021/05/12 07:20:58;;;;;;;7.10;2.90;;;12.00;99.90;;;;;;5040733;28;20219;-72
2021/05/12 07:23:24;;;;;;;4.27;2.73;;;12.10;99.90;;;;;;5041325;28;20907;-71
2021/05/12 07:25:50;;;;;;;3.80;2.83;;;12.10;99.90;;;;;;5041881;28;20207;-69
2021/05/12 07:28:16;;;;;;;10.60;3.03;;;12.10;99.90;;;;;;5042080;28;20183;-71
2021/05/12 07:30:45;;;;;;;6.17;2.80;;;12.10;99.90;;;;;;5039619;28;21249;-70
2021/05/12 07:33:11;;;;;;;5.40;2.57;;;12.10;99.90;;;;;;5040189;28;20443;-70
2021/05/12 07:35:37;;;;;;;4.50;3.00;;;12.10;99.90;;;;;;5042006;28;20461;-70
2021/05/12 07:38:03;;;;;;;2.77;2.10;;;12.10;99.90;;;;;;5041455;28;20478;-72
2021/05/12 07:40:34;;;;;;;2.83;2.63;;;12.10;99.90;;;;;;5039279;28;20569;-70
2021/05/12 07:43:03;;;;;;;3.70;2.53;;;12.10;99.90;;;;;;5040223;28;20188;-69
2021/05/12 07:45:29;;;;;;;5.70;3.00;;;12.10;99.90;;;;;;5041656;28;20466;-70
2021/05/12 07:47:55;;;;;;;2.90;2.30;;;12.10;99.90;;;;;;5040260;28;20465;-70
2021/05/12 07:50:20;;;;;;;3.00;2.23;;;12.10;99.90;;;;;;5040133;28;20462;-70
2021/05/12 07:52:46;;;;;;;4.47;2.87;;;12.10;99.90;;;;;;5040423;28;20443;-70
2021/05/12 07:55:12;;;;;;;3.47;2.67;;;12.10;99.90;;;;;;5039598;28;20955;-71
2021/05/12 07:57:39;;;;;;;5.40;2.63;;;12.10;99.90;;;;;;5032356;28;20220;-70
2021/05/12 08:00:07;;;;;;;4.20;2.30;;;12.10;99.90;;;;;;5039211;28;20247;-70
2021/05/12 08:02:32;;;;;;;3.70;2.63;;;12.10;99.90;;;;;;5039177;28;20443;-70
2021/05/12 08:04:58;;;;;;;2.50;2.30;;;12.10;99.90;;;;;;5040397;28;20450;-70
2021/05/12 08:07:24;;;;;;;3.10;2.57;;;12.20;99.90;;;;;;5037924;28;20194;-71
2021/05/12 08:09:49;;;;;;;5.77;3.27;;;12.20;99.90;;;;;;5040256;28;20753;-71
2021/05/12 08:12:15;;;;;;;4.20;2.80;;;12.20;99.90;;;;;;5040490;28;20728;-69
2021/05/12 08:14:41;;;;;;;5.90;2.93;;;12.30;99.90;;;;;;5037058;28;20732;-69
2021/05/12 08:17:06;;;;;;;3.53;2.50;;;12.40;99.90;;;;;;5040872;28;20198;-70
2021/05/12 08:19:32;;;;;;;4.63;2.80;;;12.40;99.90;;;;;;5039090;28;20200;-69
2021/05/12 08:22:04;;;;;;;8.87;3.50;;;12.40;99.90;;;;;;5039550;28;20192;-69
2021/05/12 08:24:30;;;;;;;7.70;3.03;;;12.40;99.90;;;;;;5042175;28;20702;-71
2021/05/12 08:26:57;;;;;;;3.87;3.00;;;12.40;99.90;;;;;;5040499;28;20434;-70
2021/05/12 08:29:23;;;;;;;5.20;3.30;;;12.40;99.90;;;;;;5031681;28;20453;-71
2021/05/12 08:31:49;;;;;;;17.00;5.10;;;12.30;99.90;;;;;;5044031;28;20492;-71
2021/05/12 08:34:14;;;;;;;10.70;3.37;;;12.40;99.90;;;;;;5041592;28;20741;-68
2021/05/12 08:36:40;;;;;;;7.57;3.27;;;12.50;99.90;;;;;;5037814;28;20195;-69
2021/05/12 08:39:08;;;;;;;7.80;2.87;;;12.50;99.90;;;;;;5039911;28;20601;-71
2021/05/12 08:41:35;;;;;;;9.50;3.60;;;12.50;99.90;;;;;;5039173;28;20220;-71
2021/05/12 08:44:04;;;;;;;3.97;3.13;;;12.50;99.90;;;;;;5021463;28;20450;-70
2021/05/12 08:46:30;;;;;;;6.30;3.50;;;12.60;99.90;;;;;;5038003;28;20458;-72
2021/05/12 08:48:57;;;;;;;8.47;3.73;;;12.50;99.90;;;;;;5039490;28;20445;-70
2021/05/12 08:51:26;;;;;;;9.17;3.20;;;12.60;99.90;;;;;;5040388;28;20418;-71
2021/05/12 08:53:54;;;;;;;4.20;3.00;;;12.50;99.90;;;;;;5040969;28;20446;-70
2021/05/12 08:56:20;;;;;;;4.30;3.40;;;12.40;99.90;;;;;;5025365;28;20438;-70
2021/05/12 08:58:46;;;;;;;8.63;3.20;;;12.50;99.90;;;;;;5042905;28;20445;-70
2021/05/12 09:01:11;;;;;;;6.40;2.80;;;12.50;99.90;;;;;;5041241;28;20474;-71
2021/05/12 09:03:37;;;;;;;4.80;3.00;;;12.40;99.90;;;;;;5038984;28;20195;-70
2021/05/12 09:06:03;;;;;;;5.23;3.10;;;12.50;99.90;;;;;;5043417;28;20257;-69
2021/05/12 09:08:30;;;;;;;4.40;4.00;;;12.50;99.90;;;;;;5040920;28;20194;-69
2021/05/12 09:10:56;;;;;;;4.50;4.10;;;12.50;99.90;;;;;;5041939;28;20204;-70
2021/05/12 09:13:39;;;;;;;4.43;3.97;;;12.60;99.90;;;;;;5043485;28;20438;-71
2021/05/12 09:16:20;;;;;;;3.50;3.20;;;12.60;99.90;;;;;;5040921;28;20936;-71
2021/05/12 09:18:47;;;;;;;5.63;3.30;;;12.60;99.90;;;;;;5039952;28;20497;-71
2021/05/12 09:21:14;;;;;;;6.73;3.37;;;12.70;99.90;;;;;;5041760;28;21012;-71
2021/05/12 09:23:41;;;;;;;3.43;3.13;;;12.70;99.90;;;;;;5036681;28;21222;-69
2021/05/12 09:26:12;;;;;;;4.80;3.17;;;12.70;99.90;;;;;;5031827;28;20438;-72
2021/05/12 09:28:38;;;;;;;3.60;3.30;;;12.70;99.90;;;;;;5040310;28;20430;-71
2021/05/12 09:31:05;;;;;;;5.10;3.27;;;12.80;99.90;;;;;;5038221;28;20484;-72
2021/05/12 09:33:33;;;;;;;5.43;3.87;;;12.80;99.90;;;;;;5040991;28;20501;-71
2021/05/12 09:35:59;;;;;;;9.03;3.30;;;12.80;99.90;;;;;;5043126;28;20462;-71
2021/05/12 09:38:32;;;;;;;3.77;3.47;;;12.80;99.90;;;;;;5040611;28;20479;-70
2021/05/12 09:41:12;;;;;;;8.43;3.97;;;12.70;99.90;;;;;;5042499;28;20531;-70
2021/05/12 09:43:48;;;;;;;5.73;3.50;;;12.70;99.90;;;;;;5033767;28;20442;-69
2021/05/12 09:46:16;;;;;;;5.80;3.80;;;12.80;99.90;;;;;;5035697;28;20933;-71
2021/05/12 09:49:05;;;;;;;4.40;3.10;;;12.80;99.90;;;;;;5039795;28;20899;-70
2021/05/12 09:51:33;;;;;;;9.90;3.40;;;12.80;99.90;;;;;;5038628;28;20458;-71
2021/05/12 09:54:17;;;;;;;5.63;3.63;;;13.00;99.90;;;;;;5040490;28;20538;-69
2021/05/12 09:56:43;;;;;;;5.83;3.20;;;13.00;99.90;;;;;;5040001;28;20414;-70
2021/05/12 09:59:12;;;;;;;5.77;3.27;;;13.10;99.90;;;;;;5042191;28;21198;-70
2021/05/12 10:01:43;;;;;;;4.73;3.50;;;13.20;99.90;;;;;;5043059;28;20462;-70
2021/05/12 10:04:19;;;;;;;7.40;3.53;;;13.20;99.90;;;;;;5039554;28;20448;-70
2021/05/12 10:06:45;;;;;;;6.43;4.53;;;13.30;99.90;;;;;;5043494;28;20438;-71
2021/05/12 10:09:25;;;;;;;3.67;3.27;;;13.40;99.90;;;;;;5028265;28;20433;-71
2021/05/12 10:12:21;;;;;;;4.43;3.30;;;13.30;99.90;;;;;;5044276;28;20188;-70
2021/05/12 10:14:52;;;;;;;4.47;3.20;;;13.50;99.90;;;;;;5031020;28;20928;-70
2021/05/12 10:17:19;;;;;;;6.70;3.50;;;13.70;99.90;;;;;;5043360;28;20960;-69
2021/05/12 10:19:48;;;;;;;6.33;3.80;;;13.80;99.90;;;;;;5042587;28;20484;-70
2021/05/12 10:22:14;;;;;;;9.33;4.13;;;13.80;99.90;;;;;;5047058;28;20431;-69
2021/05/12 10:24:42;;;;;;;4.83;3.50;;;13.80;99.90;;;;;;5039875;28;20489;-67
2021/05/12 10:27:13;;;;;;;7.10;3.30;;;13.80;99.90;;;;;;5025881;28;22417;-69
2021/05/12 10:29:42;;;;;;;4.63;4.13;;;13.80;99.90;;;;;;5041284;28;20419;-67
2021/05/12 10:32:33;;;;;;;6.20;3.60;;;13.80;99.90;;;;;;5043567;28;20446;-68
2021/05/12 10:35:06;;;;;;;3.63;3.30;;;13.80;99.90;;;;;;5039239;28;20465;-68
2021/05/12 10:37:37;;;;;;;6.37;4.03;;;13.90;99.90;;;;;;5034305;28;20529;-69
2021/05/12 10:40:18;;;;;;;9.60;4.10;;;14.00;99.90;;;;;;5042319;28;20984;-67
2021/05/12 10:43:22;;;;;;;3.53;3.30;;;14.00;99.90;;;;;;5043994;28;20527;-71
2021/05/12 10:45:58;;;;;;;5.07;3.80;;;14.10;99.90;;;;;;5041483;28;20462;-70
2021/05/12 10:48:43;;;;;;;4.17;3.07;;;14.20;99.90;;;;;;5042507;28;20480;-70
2021/05/12 10:51:22;;;;;;;5.63;3.70;;;14.20;99.90;;;;;;5045341;28;20433;-72
2021/05/12 10:53:52;;;;;;;4.53;3.47;;;14.30;99.90;;;;;;5040201;28;20507;-69
2021/05/12 10:56:20;;;;;;;3.27;2.97;;;14.20;99.90;;;;;;5042204;28;20488;-70
2021/05/12 10:58:54;;;;;;;8.20;3.50;;;14.40;99.90;;;;;;5043422;28;20929;-70
2021/05/12 11:01:19;;;;;;;6.97;3.83;;;14.40;99.90;;;;;;5042362;28;20462;-70
2021/05/12 11:03:48;;;;;;;8.23;4.50;;;14.60;99.90;;;;;;5040721;28;20446;-71
2021/05/12 11:06:15;;;;;;;3.30;3.00;;;14.80;99.90;;;;;;5044183;28;20184;-69
2021/05/12 11:09:09;;;;;;;3.40;3.10;;;14.90;99.90;;;;;;5040942;28;20434;-70
2021/05/12 11:11:46;;;;;;;4.47;3.93;;;15.10;99.90;;;;;;5041688;28;20453;-70
2021/05/12 11:14:32;;;;;;;4.23;3.87;;;15.30;99.90;;;;;;5040551;28;20556;-69
2021/05/12 11:17:10;;;;;;;8.60;3.40;;;15.40;99.90;;;;;;5042972;28;20418;-69
2021/05/12 11:19:43;;;;;;;6.47;4.00;;;15.40;99.90;;;;;;5043909;28;20434;-71
2021/05/12 11:25:21;;;;;;;5.90;4.10;;;15.80;99.90;;;;;;5042022;28;20450;-71
2021/05/12 11:33:28;;;;;;;4.57;3.80;;;16.20;99.90;;;;;;5044356;28;20453;-69
2021/05/12 11:36:16;;;;;;;3.80;3.40;;;16.20;99.90;;;;;;5041365;28;20458;-71
2021/05/12 11:38:42;;;;;;;8.00;3.97;;;16.60;99.90;;;;;;5038235;28;20445;-69
2021/05/12 11:41:10;;;;;;;4.90;3.73;;;17.00;99.90;;;;;;5042051;28;20458;-69
2021/05/12 11:43:46;;;;;;;4.70;3.30;;;18.00;99.90;;;;;;5041013;28;20491;-71
2021/05/12 11:46:33;;;;;;;3.40;3.10;;;20.80;99.90;;;;;;5027356;28;20457;-70
2021/05/12 11:49:05;;;;;;;4.20;2.90;;;23.80;99.90;;;;;;5040679;28;20792;-69
2021/05/12 11:51:44;;;;;;;6.53;3.73;;;25.50;99.90;;;;;;5042107;28;20469;-69
2021/05/12 11:54:18;;;;;;;4.67;3.50;;;24.30;99.90;;;;;;5041608;28;20454;-70
2021/05/12 11:56:45;;;;;;;5.13;4.63;;;23.10;99.90;;;;;;5039588;28;20446;-72
2021/05/12 11:59:21;;;;;;;3.60;3.30;;;22.00;99.90;;;;;;5036721;28;20976;-70
2021/05/12 12:01:57;;;;;;;4.97;4.20;;;21.40;99.90;;;;;;5038284;28;21134;-70
2021/05/12 12:06:49;;;;;;;4.53;4.10;;;21.00;99.90;;;;;;5042841;28;21023;-69
2021/05/12 12:09:19;;;;;;;4.23;3.83;;;20.60;99.90;;;;;;5042352;28;20513;-70
2021/05/12 12:11:45;;;;;;;6.70;3.80;;;20.30;99.90;;;;;;5042437;28;20784;-70
2021/05/12 12:14:12;;;;;;;9.63;3.57;;;20.00;99.90;;;;;;5046471;28;20486;-70
2021/05/12 12:16:43;;;;;;;5.20;3.30;;;19.50;99.90;;;;;;5042039;28;20438;-72
2021/05/12 12:19:10;;;;;;;7.80;3.70;;;19.20;99.90;;;;;;5042872;28;20435;-69
2021/05/12 12:21:37;;;;;;;6.17;3.70;;;19.20;99.90;;;;;;5042148;28;20470;-71
2021/05/12 12:24:14;;;;;;;3.40;3.10;;;19.50;99.90;;;;;;5042560;28;20454;-69
2021/05/12 12:26:43;;;;;;;7.70;4.47;;;19.60;99.90;;;;;;5042168;28;20955;-70
2021/05/12 12:29:10;;;;;;;10.20;5.90;;;19.60;99.90;;;;;;5042260;28;20418;-70
2021/05/12 12:31:45;;;;;;;3.90;3.60;;;19.40;99.90;;;;;;5040876;28;20419;-74
2021/05/12 12:34:31;;;;;;;3.10;2.80;;;19.40;99.90;;;;;;5021506;28;20502;-71
2021/05/12 12:37:17;;;;;;;3.40;3.10;;;19.20;99.90;;;;;;5042751;28;20433;-70
2021/05/12 12:39:56;;;;;;;4.50;3.40;;;19.00;99.90;;;;;;5041780;28;20493;-72
2021/05/12 12:42:30;;;;;;;5.60;3.47;;;18.80;99.90;;;;;;5037490;28;20882;-70
2021/05/12 12:45:25;;;;;;;3.87;3.10;;;18.90;99.90;;;;;;5037138;28;20465;-75
2021/05/12 12:47:57;;;;;;;4.53;2.97;;;19.00;99.90;;;;;;5030943;28;20441;-69
2021/05/12 12:50:25;;;;;;;4.90;3.70;;;19.00;99.90;;;;;;5041766;28;20944;-70
2021/05/12 12:52:51;;;;;;;4.10;3.77;;;18.80;99.90;;;;;;5036934;28;20838;-70
2021/05/12 12:55:21;;;;;;;5.60;3.43;;;18.70;99.90;;;;;;5022306;28;20458;-70
2021/05/12 12:57:55;;;;;;;12.23;3.90;;;18.60;99.90;;;;;;5039676;28;20744;-70
2021/05/12 13:00:28;;;;;;;3.67;3.37;;;18.50;99.90;;;;;;5033504;28;20511;-70
2021/05/12 13:03:00;;;;;;;4.97;3.20;;;18.40;99.90;;;;;;5036746;28;20561;-68